Time;durP1;ratioP1;P1;durP2;ratioP2;P2;SDS_P1;SDS_P2;PMS_P1;PMS_P2;Temp;Humidity;BMP_temperature;BMP_pressure;BME280_temperature;BME280_humidity;BME280_pressure;Samples;Min_cycle;Max_cycle;Signal;HPM_P1;HPM_P2
2023/10/01 00:01:43;;;;;;;19.80;8.40;;;;;;;21.01;57.87;100653.28;5052403;28;20374;-77
2023/10/01 00:04:10;;;;;;;18.10;7.53;;;;;;;21.00;56.96;100662.53;5053053;28;20036;-76
2023/10/01 00:06:36;;;;;;;16.98;6.90;;;;;;;20.97;56.64;100652.84;5052440;28;20040;-79
2023/10/01 00:09:05;;;;;;;23.90;7.60;;;;;;;20.90;55.89;100634.66;5016628;28;20763;-77
2023/10/01 00:11:34;;;;;;;14.93;7.97;;;;;;;21.06;54.50;100650.84;5051588;28;20056;-78
2023/10/01 00:14:00;;;;;;;15.60;7.53;;;;;;;21.08;53.88;100646.03;5051744;28;20035;-77
2023/10/01 00:16:29;;;;;;;22.52;6.85;;;;;;;21.15;52.97;100647.84;5050777;28;20416;-78
2023/10/01 00:18:54;;;;;;;15.55;7.30;;;;;;;21.13;52.86;100651.78;5051533;28;20036;-76
2023/10/01 00:21:20;;;;;;;17.90;7.72;;;;;;;21.15;52.84;100647.00;5051535;28;20416;-77
2023/10/01 00:23:46;;;;;;;24.75;8.52;;;;;;;21.17;52.63;100639.44;5051479;28;20620;-79
2023/10/01 00:26:11;;;;;;;17.90;6.43;;;;;;;21.19;51.95;100631.91;5051453;28;20036;-78
2023/10/01 00:28:37;;;;;;;16.70;6.80;;;;;;;21.16;52.15;100644.03;5051176;28;20029;-78
2023/10/01 00:31:02;;;;;;;16.75;8.00;;;;;;;21.22;51.67;100653.41;5051364;28;20025;-77
2023/10/01 00:33:28;;;;;;;21.48;7.43;;;;;;;21.20;51.34;100649.97;5050853;28;20158;-78
2023/10/01 00:35:56;;;;;;;22.02;7.53;;;;;;;21.19;51.03;100642.84;5051301;28;20029;-77
2023/10/01 00:38:22;;;;;;;15.25;7.10;;;;;;;21.01;50.94;100612.25;5051062;28;20435;-78
2023/10/01 00:40:49;;;;;;;15.60;7.15;;;;;;;21.26;50.66;100637.41;5050920;28;20067;-76
2023/10/01 00:43:14;;;;;;;13.30;7.40;;;;;;;21.27;50.65;100642.72;5050853;28;20052;-77
2023/10/01 00:45:40;;;;;;;17.90;7.85;;;;;;;21.11;50.44;100612.84;5050851;28;20037;-76
2023/10/01 00:48:13;;;;;;;14.82;7.72;;;;;;;21.22;50.68;100641.59;5051203;28;20032;-77
2023/10/01 00:50:40;;;;;;;15.35;7.40;;;;;;;21.25;50.65;100655.75;5051280;28;20029;-76
2023/10/01 00:53:06;;;;;;;15.68;7.35;;;;;;;21.19;50.62;100651.03;5050898;28;20112;-77
2023/10/01 00:55:31;;;;;;;21.15;7.65;;;;;;;21.21;50.57;100643.47;5050433;28;20078;-78
2023/10/01 00:57:58;;;;;;;23.55;7.93;;;;;;;21.04;50.43;100610.00;5050388;28;20032;-77
2023/10/01 01:00:25;;;;;;;14.65;7.05;;;;;;;21.21;49.81;100651.69;5050640;28;20108;-77
2023/10/01 01:02:57;;;;;;;21.98;8.27;;;;;;;21.16;49.82;100634.97;5050594;28;20075;-79
2023/10/01 01:05:36;;;;;;;12.43;7.97;;;;;;;21.22;49.66;100644.34;5050272;28;20536;-78
2023/10/01 01:08:04;;;;;;;11.15;7.15;;;;;;;21.21;49.12;100643.47;5050262;28;20024;-77
2023/10/01 01:10:39;;;;;;;16.13;8.27;;;;;;;21.15;49.09;100636.03;5050445;28;20116;-77
2023/10/01 01:13:06;;;;;;;21.90;7.50;;;;;;;21.17;48.89;100633.94;5050505;28;20040;-77
2023/10/01 01:15:34;;;;;;;14.98;7.97;;;;;;;21.19;48.96;100644.72;5031282;28;20037;-78
2023/10/01 01:18:01;;;;;;;14.75;8.23;;;;;;;21.10;49.16;100625.66;5050216;28;20106;-76
2023/10/01 01:20:36;;;;;;;13.73;7.38;;;;;;;20.95;49.20;100608.41;5050351;28;20033;-77
2023/10/01 01:23:04;;;;;;;18.85;8.15;;;;;;;20.91;48.80;100600.81;5050036;28;20017;-79
2023/10/01 01:25:32;;;;;;;20.05;7.90;;;;;;;21.15;48.53;100633.31;5050283;28;20033;-78
2023/10/01 01:27:58;;;;;;;19.15;8.43;;;;;;;21.17;48.64;100636.69;5049587;28;20033;-78
2023/10/01 01:30:26;;;;;;;18.67;7.60;;;;;;;20.95;48.32;100602.09;5050587;28;20036;-76
2023/10/01 01:32:57;;;;;;;14.23;7.47;;;;;;;21.13;48.18;100643.56;5049979;28;20051;-75
2023/10/01 01:35:28;;;;;;;17.27;8.60;;;;;;;21.07;48.25;100636.09;5049308;28;20464;-76
2023/10/01 01:38:00;;;;;;;26.27;7.15;;;;;;;21.03;48.03;100629.34;5049850;28;20025;-77
2023/10/01 01:40:31;;;;;;;14.75;7.78;;;;;;;21.06;47.35;100637.16;5049741;28;20025;-77
2023/10/01 01:43:03;;;;;;;26.25;6.88;;;;;;;21.02;46.96;100631.22;5050205;28;20145;-76
2023/10/01 01:45:33;;;;;;;18.15;7.55;;;;;;;21.06;46.48;100638.03;5049836;28;20029;-77
2023/10/01 01:48:00;;;;;;;22.90;7.20;;;;;;;21.03;46.31;100632.09;5049742;28;20107;-77
2023/10/01 01:50:26;;;;;;;13.07;6.80;;;;;;;21.09;46.20;100639.56;5050128;28;20037;-77
2023/10/01 01:52:56;;;;;;;12.02;5.95;;;;;;;21.00;46.38;100635.19;5049953;28;20484;-77
2023/10/01 01:55:23;;;;;;;19.65;7.28;;;;;;;21.05;46.17;100638.19;5049977;28;20032;-77
2023/10/01 01:58:02;;;;;;;13.10;6.30;;;;;;;21.07;46.31;100642.44;5050004;28;20029;-77
2023/10/01 02:00:31;;;;;;;15.50;5.50;;;;;;;20.93;46.29;100620.59;5032229;28;20048;-78
2023/10/01 02:03:00;;;;;;;14.65;6.40;;;;;;;21.11;46.11;100646.53;5050438;28;20049;-77
2023/10/01 02:05:28;;;;;;;19.45;6.25;;;;;;;21.12;46.01;100650.09;5049705;28;20455;-77
2023/10/01 02:07:54;;;;;;;12.80;5.85;;;;;;;21.14;46.02;100650.75;5049885;28;20071;-76
2023/10/01 02:10:20;;;;;;;13.15;5.78;;;;;;;21.13;46.14;100655.38;5049812;28;20033;-78
2023/10/01 02:12:47;;;;;;;17.20;6.13;;;;;;;21.14;46.07;100648.88;5049408;28;20036;-77
2023/10/01 02:15:14;;;;;;;11.65;6.60;;;;;;;20.99;46.13;100619.81;5030467;28;20033;-79
2023/10/01 02:17:39;;;;;;;28.45;7.18;;;;;;;21.18;46.16;100660.28;5049262;28;20481;-77
2023/10/01 02:20:21;;;;;;;19.13;6.72;;;;;;;21.22;46.30;100658.00;5049505;28;20025;-77
2023/10/01 02:22:48;;;;;;;14.57;5.82;;;;;;;21.06;46.43;100631.69;5049763;28;20111;-77
2023/10/01 02:25:16;;;;;;;16.60;6.18;;;;;;;21.25;46.42;100655.75;5049560;28;20086;-78
2023/10/01 02:27:49;;;;;;;26.13;6.22;;;;;;;21.27;46.39;100655.53;5049271;28;20508;-78
2023/10/01 02:30:16;;;;;;;16.48;6.03;;;;;;;21.20;46.67;100649.13;5049749;28;20028;-77
2023/10/01 02:35:35;;;;;;;12.90;6.20;;;;;;;21.24;46.98;100654.03;5033676;28;20075;-77
2023/10/01 02:38:08;;;;;;;34.60;8.20;;;;;;;21.27;47.30;100648.19;5049113;28;20065;-77
2023/10/01 02:40:37;;;;;;;21.23;5.82;;;;;;;21.24;47.43;100655.91;5053577;28;20527;-77
2023/10/01 02:43:12;;;;;;;15.05;6.18;;;;;;;21.26;47.68;100657.41;5053694;28;20044;-78
2023/10/01 02:45:41;;;;;;;21.02;6.72;;;;;;;21.22;47.97;100650.66;5053372;28;20497;-77
2023/10/01 02:48:13;;;;;;;15.63;6.13;;;;;;;21.26;48.10;100654.69;5053385;28;20021;-76
2023/10/01 02:50:42;;;;;;;15.45;6.15;;;;;;;21.30;48.20;100661.47;5053477;28;20033;-78
2023/10/01 02:53:08;;;;;;;13.95;7.10;;;;;;;21.28;48.43;100655.34;5053008;28;20025;-78
2023/10/01 02:55:33;;;;;;;35.78;6.60;;;;;;;21.08;48.69;100607.72;5053275;28;20033;-78
2023/10/01 02:58:17;;;;;;;20.15;6.95;;;;;;;21.11;48.93;100619.16;5053190;28;20481;-78
2023/10/01 03:00:42;;;;;;;24.17;7.38;;;;;;;21.23;49.71;100649.59;5053011;28;20028;-77
2023/10/01 03:03:14;;;;;;;26.42;7.45;;;;;;;21.23;49.87;100652.31;5053141;28;20086;-77
2023/10/01 03:05:42;;;;;;;26.02;7.32;;;;;;;21.20;50.45;100643.66;5053072;28;20029;-78
2023/10/01 03:08:12;;;;;;;23.48;6.32;;;;;;;21.07;51.25;100633.38;5052920;28;20029;-77
2023/10/01 03:10:38;;;;;;;19.30;7.72;;;;;;;21.10;51.72;100643.97;5052674;28;20082;-75
2023/10/01 03:13:14;;;;;;;18.63;6.72;;;;;;;21.06;52.11;100648.09;5053225;28;20471;-78
2023/10/01 03:15:43;;;;;;;27.58;8.02;;;;;;;21.09;52.71;100645.03;5052376;28;20116;-77
2023/10/01 03:18:34;;;;;;;21.88;7.43;;;;;;;21.07;52.95;100644.31;5052338;28;20401;-78
2023/10/01 03:26:08;;;;;;;17.13;7.15;;;;;;;20.97;53.81;100646.53;5052826;28;20554;-78
2023/10/01 03:31:23;;;;;;;22.15;8.38;;;;;;;20.91;53.93;100647.28;5052462;28;20040;-78
2023/10/01 03:33:54;;;;;;;13.77;7.38;;;;;;;20.91;54.16;100664.56;5052528;28;20116;-77
2023/10/01 03:36:32;;;;;;;25.35;8.00;;;;;;;20.89;54.41;100654.81;5052245;28;20071;-79
2023/10/01 03:42:02;;;;;;;21.20;8.75;;;;;;;20.76;54.42;100646.47;5052694;28;20051;-78
2023/10/01 03:47:12;;;;;;;24.88;8.75;;;;;;;20.44;55.00;100621.22;5052038;28;20032;-78
2023/10/01 03:49:40;;;;;;;18.85;7.47;;;;;;;20.71;55.16;100662.56;5051524;28;20417;-77
2023/10/01 03:52:09;;;;;;;18.20;7.95;;;;;;;20.67;55.45;100658.53;5051641;28;20535;-77
2023/10/01 03:55:00;;;;;;;22.13;9.27;;;;;;;20.69;55.41;100656.44;5052048;28;20041;-77
2023/10/01 03:57:29;;;;;;;28.55;8.63;;;;;;;20.60;55.73;100659.28;5052100;28;20033;-77
2023/10/01 03:59:57;;;;;;;23.88;8.48;;;;;;;20.60;55.92;100667.50;5051976;28;20037;-78
2023/10/01 04:05:30;;;;;;;22.73;8.20;;;;;;;20.55;56.20;100660.88;5051989;28;20128;-78
2023/10/01 04:07:59;;;;;;;22.70;7.97;;;;;;;20.58;56.18;100675.00;5051731;28;20048;-79
2023/10/01 04:13:11;;;;;;;14.57;7.65;;;;;;;20.45;56.17;100647.50;5052146;28;20032;-79
2023/10/01 04:15:41;;;;;;;20.30;8.73;;;;;;;20.47;55.85;100648.16;5051372;28;20466;-78
2023/10/01 04:18:19;;;;;;;25.48;8.23;;;;;;;20.57;55.84;100670.59;5050918;28;20055;-78
2023/10/01 04:23:32;;;;;;;14.07;7.45;;;;;;;20.56;55.42;100663.44;5051551;28;20037;-82
2023/10/01 04:26:04;;;;;;;27.48;8.23;;;;;;;20.61;55.02;100680.09;5051339;28;20117;-81
2023/10/01 04:28:31;;;;;;;14.87;8.80;;;;;;;20.60;55.02;100681.16;5050788;28;20051;-79
2023/10/01 04:30:56;;;;;;;16.88;8.48;;;;;;;20.65;54.65;100680.56;5050870;28;20029;-79
2023/10/01 04:33:25;;;;;;;23.98;8.40;;;;;;;20.70;54.33;100680.03;5050999;28;20087;-78
2023/10/01 04:35:58;;;;;;;29.00;8.88;;;;;;;20.50;53.96;100636.84;5050933;28;20021;-77
2023/10/01 04:38:29;;;;;;;28.25;7.25;;;;;;;20.62;53.58;100659.94;5050775;28;20124;-79
2023/10/01 04:40:57;;;;;;;20.00;6.97;;;;;;;20.57;53.48;100654.22;5058373;28;20125;-79
2023/10/01 04:43:26;;;;;;;23.60;7.90;;;;;;;20.82;53.38;100687.56;5055860;28;20052;-80
2023/10/01 04:45:52;;;;;;;38.60;8.00;;;;;;;20.82;53.01;100686.72;5035149;28;20033;-79
2023/10/01 04:48:24;;;;;;;16.27;6.85;;;;;;;20.87;52.71;100687.84;5051001;28;20052;-79
2023/10/01 04:50:55;;;;;;;19.38;7.40;;;;;;;20.89;52.41;100684.88;5050583;28;20446;-79
2023/10/01 04:53:25;;;;;;;20.48;8.15;;;;;;;20.93;52.37;100683.47;5050513;28;20028;-80
2023/10/01 04:56:01;;;;;;;16.00;7.38;;;;;;;20.90;52.20;100681.97;5050738;28;20072;-80
2023/10/01 04:58:29;;;;;;;18.48;6.72;;;;;;;20.93;52.35;100692.53;5031496;28;20678;-78
2023/10/01 05:00:55;;;;;;;13.50;6.45;;;;;;;20.98;51.92;100700.16;5050387;28;20452;-78
2023/10/01 05:03:40;;;;;;;17.20;7.47;;;;;;;20.99;52.01;100688.19;5050348;28;20370;-78
2023/10/01 05:06:11;;;;;;;29.30;7.78;;;;;;;20.97;52.03;100672.00;5050785;28;20032;-80
2023/10/01 05:08:40;;;;;;;22.03;8.33;;;;;;;21.09;51.88;100688.78;5050673;28;20025;-79
2023/10/01 05:11:10;;;;;;;27.58;7.32;;;;;;;21.19;51.66;100692.06;5050197;28;20258;-79
2023/10/01 05:13:41;;;;;;;25.60;6.85;;;;;;;21.10;51.62;100652.16;5050607;28;20053;-78
2023/10/01 05:16:12;;;;;;;17.00;6.63;;;;;;;20.85;51.39;100617.97;5032520;28;20116;-79
2023/10/01 05:18:48;;;;;;;22.50;7.03;;;;;;;21.25;51.45;100677.63;5051010;28;20029;-79
2023/10/01 05:21:18;;;;;;;13.27;6.72;;;;;;;21.27;51.07;100680.16;5033090;28;20027;-79
2023/10/01 05:23:47;;;;;;;22.38;7.43;;;;;;;21.33;50.95;100688.44;5050208;28;20075;-76
2023/10/01 05:26:18;;;;;;;27.60;7.05;;;;;;;21.27;51.17;100670.06;5050005;28;20485;-77
2023/10/01 05:28:47;;;;;;;17.38;6.57;;;;;;;21.32;51.06;100686.75;5032188;28;20032;-82
2023/10/01 05:31:12;;;;;;;17.83;7.10;;;;;;;21.28;50.89;100677.25;5050441;28;20028;-80
2023/10/01 05:33:39;;;;;;;18.45;6.45;;;;;;;21.36;51.28;100682.59;5050214;28;20040;-77
2023/10/01 05:36:05;;;;;;;17.42;6.65;;;;;;;21.48;50.77;100694.72;5050104;28;20036;-77
2023/10/01 05:38:35;;;;;;;15.90;6.85;;;;;;;21.51;50.88;100686.13;5050338;28;20087;-76
2023/10/01 05:41:04;;;;;;;16.33;7.30;;;;;;;21.56;50.74;100693.72;5049932;28;20113;-76
2023/10/01 05:43:43;;;;;;;18.33;6.18;;;;;;;21.60;50.36;100690.44;5049540;28;20140;-77
2023/10/01 05:46:11;;;;;;;17.85;6.47;;;;;;;21.67;50.61;100698.72;5050008;28;20025;-78
2023/10/01 05:48:39;;;;;;;23.08;7.10;;;;;;;21.76;50.19;100704.91;5049783;28;20531;-76
2023/10/01 05:51:11;;;;;;;19.10;6.65;;;;;;;21.75;50.03;100692.25;5049860;28;20044;-76
2023/10/01 05:53:38;;;;;;;19.63;7.00;;;;;;;21.70;49.86;100668.22;5050017;28;20068;-76
2023/10/01 05:56:07;;;;;;;21.30;7.53;;;;;;;21.78;49.88;100664.47;5049552;28;20460;-76
2023/10/01 05:58:37;;;;;;;19.50;8.65;;;;;;;22.05;49.27;100688.34;5049959;28;20036;-76
2023/10/01 06:01:05;;;;;;;23.05;7.88;;;;;;;22.11;48.99;100691.16;5049886;28;20452;-76
2023/10/01 06:03:33;;;;;;;24.10;6.32;;;;;;;22.18;48.91;100680.25;5050257;28;20118;-77
2023/10/01 06:05:59;;;;;;;25.80;6.60;;;;;;;22.08;48.71;100671.50;5050143;28;20021;-76
2023/10/01 06:08:44;;;;;;;19.13;6.25;;;;;;;22.31;48.56;100702.28;5049654;28;20036;-78
2023/10/01 06:11:15;;;;;;;24.00;6.68;;;;;;;22.30;48.36;100681.38;5049681;28;20025;-77
2023/10/01 06:13:49;;;;;;;28.27;6.97;;;;;;;22.49;48.16;100691.66;5049122;28;20033;-76
2023/10/01 06:16:23;;;;;;;18.58;6.47;;;;;;;22.57;47.37;100698.84;5049831;28;20457;-78
2023/10/01 06:18:56;;;;;;;32.33;7.70;;;;;;;22.66;47.62;100692.19;5049550;28;20047;-78
2023/10/01 06:21:33;;;;;;;31.23;7.55;;;;;;;22.61;46.94;100679.09;5049982;28;20128;-77
2023/10/01 06:24:07;;;;;;;24.02;7.00;;;;;;;22.67;46.80;100681.06;5049349;28;20033;-78
2023/10/01 06:26:50;;;;;;;18.88;7.10;;;;;;;22.95;46.08;100702.94;5049628;28;20063;-77
2023/10/01 06:29:16;;;;;;;14.52;6.65;;;;;;;23.04;45.96;100698.13;5049460;28;20033;-76
2023/10/01 06:32:00;;;;;;;45.13;7.40;;;;;;;23.18;45.53;100699.84;5049400;28;20033;-77
2023/10/01 06:34:28;;;;;;;35.95;8.93;;;;;;;23.11;45.41;100668.81;5049436;28;20025;-76
2023/10/01 06:36:59;;;;;;;24.52;9.50;;;;;;;23.37;45.32;100701.84;5049508;28;20040;-76
2023/10/01 06:39:30;;;;;;;24.15;8.35;;;;;;;23.43;44.70;100695.56;5049740;28;20063;-77
2023/10/01 06:44:41;;;;;;;25.55;7.40;;;;;;;23.66;43.85;100706.19;5050046;28;20441;-77
2023/10/01 06:47:14;;;;;;;22.30;7.13;;;;;;;23.56;43.26;100687.38;5049368;28;20036;-77
2023/10/01 06:49:56;;;;;;;21.60;6.38;;;;;;;23.77;43.37;100709.16;5056996;28;20029;-77
2023/10/01 06:52:28;;;;;;;32.40;8.73;;;;;;;23.88;43.45;100718.72;5075549;28;20033;-77
2023/10/01 06:55:01;;;;;;;22.23;7.90;;;;;;;24.04;42.90;100725.66;5075320;28;20021;-78
2023/10/01 06:57:38;;;;;;;26.90;7.07;;;;;;;24.13;42.46;100718.94;5070970;28;20048;-78
2023/10/01 07:00:13;;;;;;;29.42;6.90;;;;;;;24.25;42.48;100714.50;5066566;28;20108;-76
2023/10/01 07:02:40;;;;;;;26.73;7.05;;;;;;;24.29;41.52;100713.03;5069692;28;20456;-77
2023/10/01 07:05:06;;;;;;;19.70;6.63;;;;;;;24.34;41.22;100710.53;5052464;28;20558;-77
2023/10/01 07:07:35;;;;;;;23.77;7.47;;;;;;;24.45;40.87;100722.75;5049738;28;20128;-76
2023/10/01 07:10:01;;;;;;;24.90;7.13;;;;;;;24.52;40.44;100718.97;5049967;28;20025;-77
2023/10/01 07:12:27;;;;;;;24.55;7.38;;;;;;;24.57;40.26;100730.16;5048967;28;20021;-78
2023/10/01 07:14:53;;;;;;;19.13;5.55;;;;;;;24.58;40.32;100709.84;5048838;28;20067;-78
2023/10/01 07:17:23;;;;;;;19.65;6.95;;;;;;;24.70;39.91;100726.53;5048719;28;20481;-77
2023/10/01 07:19:59;;;;;;;14.90;6.15;;;;;;;24.74;39.95;100720.38;5048802;28;20029;-78
2023/10/01 07:22:32;;;;;;;22.83;6.00;;;;;;;24.82;39.58;100731.22;5048813;28;20029;-76
2023/10/01 07:25:03;;;;;;;29.35;6.32;;;;;;;24.72;39.06;100696.91;5032613;28;20032;-76
2023/10/01 07:27:29;;;;;;;22.65;6.60;;;;;;;24.92;39.56;100719.75;5052152;28;20021;-76
2023/10/01 07:29:56;;;;;;;25.50;7.60;;;;;;;25.04;39.21;100728.19;5051793;28;20488;-78
2023/10/01 07:32:24;;;;;;;23.10;6.78;;;;;;;25.06;38.80;100720.56;5052433;28;20029;-77
2023/10/01 07:35:06;;;;;;;16.33;6.43;;;;;;;25.12;38.54;100716.94;5052284;28;20479;-76
2023/10/01 07:37:37;;;;;;;21.38;6.60;;;;;;;25.16;38.39;100726.47;5051850;28;20488;-77
2023/10/01 07:40:13;;;;;;;24.13;6.50;;;;;;;25.27;38.30;100723.00;5052000;28;20512;-78
2023/10/01 07:42:46;;;;;;;23.02;6.00;;;;;;;25.41;38.26;100719.97;5051775;28;20040;-79
2023/10/01 07:45:18;;;;;;;29.70;7.28;;;;;;;25.54;38.09;100719.09;5052617;28;20386;-77
2023/10/01 07:47:44;;;;;;;27.48;6.45;;;;;;;25.59;37.96;100734.97;5052041;28;20060;-79
2023/10/01 07:50:12;;;;;;;20.50;5.75;;;;;;;25.55;37.59;100712.53;5052116;28;20123;-79
2023/10/01 07:52:40;;;;;;;14.45;5.53;;;;;;;25.63;37.23;100714.16;5051880;28;20028;-77
2023/10/01 07:57:51;;;;;;;30.98;6.30;;;;;;;25.78;37.22;100723.84;5051988;28;20601;-77
2023/10/01 08:00:26;;;;;;;20.42;7.93;;;;;;;25.78;37.18;100721.06;5051914;28;20025;-78
2023/10/01 08:05:48;;;;;;;16.92;6.82;;;;;;;25.77;37.01;100724.91;4951435;29;20078;-77
2023/10/01 08:08:37;;;;;;;19.67;6.68;;;;;;;25.73;37.02;100718.16;4951427;29;20050;-78
2023/10/01 08:13:55;;;;;;;18.65;6.53;;;;;;;25.77;36.74;100719.41;4913309;29;20055;-77
2023/10/01 08:16:23;;;;;;;21.40;6.95;;;;;;;25.80;36.67;100713.44;4912578;29;20413;-76
2023/10/01 08:18:51;;;;;;;19.13;6.20;;;;;;;25.93;36.19;100727.13;4912993;29;20425;-75
2023/10/01 08:21:17;;;;;;;21.40;7.15;;;;;;;25.71;36.20;100676.22;4912891;29;20068;-77
2023/10/01 08:23:48;;;;;;;22.95;7.22;;;;;;;26.02;36.03;100724.97;4912896;29;20490;-76
2023/10/01 08:28:58;;;;;;;36.42;8.07;;;;;;;25.98;35.62;100724.56;4913384;29;20099;-78
2023/10/01 08:34:27;;;;;;;26.05;6.82;;;;;;;26.13;35.00;100738.03;4913095;29;20505;-77
2023/10/01 08:36:54;;;;;;;25.65;7.57;;;;;;;26.18;35.10;100731.84;4912183;29;20040;-78
2023/10/01 08:39:33;;;;;;;19.23;6.50;;;;;;;26.21;34.84;100735.00;4912943;29;20039;-77
2023/10/01 08:42:09;;;;;;;24.20;6.40;;;;;;;26.30;34.67;100735.56;4935780;28;21146;-76
2023/10/01 08:44:49;;;;;;;21.80;8.27;;;;;;;26.31;34.50;100748.31;4970101;28;20185;-79
2023/10/01 08:47:21;;;;;;;34.88;7.50;;;;;;;26.25;34.51;100739.00;4969977;28;20121;-78
2023/10/01 08:49:55;;;;;;;28.77;7.47;;;;;;;26.06;34.84;100733.59;4971168;28;20035;-77
2023/10/01 08:52:26;;;;;;;28.27;9.18;;;;;;;26.14;34.91;100741.63;5051057;28;20257;-77
2023/10/01 08:54:54;;;;;;;20.02;6.93;;;;;;;26.08;34.78;100748.03;5050998;28;20143;-78
2023/10/01 08:57:36;;;;;;;20.63;6.75;;;;;;;25.91;34.68;100739.44;5050731;28;20420;-76
2023/10/01 09:00:14;;;;;;;20.05;7.93;;;;;;;25.90;34.83;100740.53;5051071;28;20116;-77
2023/10/01 09:02:40;;;;;;;27.40;6.78;;;;;;;25.90;34.84;100740.53;5050645;28;20493;-78
2023/10/01 09:05:08;;;;;;;29.60;8.55;;;;;;;25.89;35.08;100745.19;5051030;28;20037;-77
2023/10/01 09:07:48;;;;;;;25.33;8.15;;;;;;;25.94;34.63;100737.09;5015378;28;20074;-77
2023/10/01 09:10:17;;;;;;;23.27;7.63;;;;;;;25.90;34.42;100741.34;5050774;28;20029;-77
2023/10/01 09:12:46;;;;;;;19.48;7.68;;;;;;;25.98;34.81;100752.13;5050621;28;20506;-76
2023/10/01 09:15:38;;;;;;;24.38;8.30;;;;;;;26.12;34.23;100749.25;5050341;28;20105;-76
2023/10/01 09:18:10;;;;;;;34.88;8.30;;;;;;;26.15;34.42;100743.28;5050296;28;20033;-78
2023/10/01 09:21:03;;;;;;;21.60;9.25;;;;;;;26.18;34.75;100743.72;5050694;28;20033;-78
2023/10/01 09:23:56;;;;;;;28.77;7.40;;;;;;;26.22;34.72;100749.66;5050149;28;20400;-77
2023/10/01 09:27:08;;;;;;;24.00;7.57;;;;;;;26.24;34.22;100736.47;5050232;28;20148;-77
2023/10/01 09:29:25;;;;;;;35.22;8.25;;;;;;;26.17;33.92;100741.22;5049765;28;20040;-78
2023/10/01 09:31:59;;;;;;;29.35;8.13;;;;;;;26.18;33.77;100748.41;5050213;28;20037;-76
2023/10/01 09:34:33;;;;;;;24.15;7.72;;;;;;;26.25;33.72;100740.94;5050277;28;20075;-77
2023/10/01 09:37:33;;;;;;;24.60;8.75;;;;;;;26.33;33.92;100746.16;5001266;28;20122;-77
2023/10/01 09:42:56;;;;;;;23.77;8.35;;;;;;;26.28;33.60;100743.22;5050543;28;20103;-77
2023/10/01 09:45:26;;;;;;;34.27;8.33;;;;;;;26.36;33.23;100757.59;5049996;28;20051;-78
2023/10/01 09:48:04;;;;;;;22.85;7.68;;;;;;;26.49;33.27;100749.22;5049264;28;20021;-76
2023/10/01 09:50:39;;;;;;;22.50;8.93;;;;;;;26.41;33.13;100721.91;5050011;28;20083;-76
2023/10/01 09:53:14;;;;;;;27.20;8.02;;;;;;;26.61;33.47;100751.22;5049655;28;20469;-78
2023/10/01 09:55:55;;;;;;;26.63;8.90;;;;;;;26.64;33.27;100748.00;5048124;28;20041;-77
2023/10/01 09:58:25;;;;;;;30.27;8.32;;;;;;;26.72;33.30;100756.00;5049698;28;20049;-78
2023/10/01 10:00:52;;;;;;;18.63;7.82;;;;;;;26.76;33.29;100752.56;5050223;28;20104;-77
2023/10/01 10:03:18;;;;;;;23.55;8.68;;;;;;;26.75;33.49;100744.53;5050165;28;20029;-79
2023/10/01 10:05:46;;;;;;;25.45;8.35;;;;;;;26.94;33.63;100755.38;5014223;28;20109;-77
2023/10/01 10:08:20;;;;;;;20.73;8.30;;;;;;;27.10;33.33;100766.88;5049764;28;20025;-76
2023/10/01 10:10:52;;;;;;;19.85;9.38;;;;;;;27.09;32.69;100757.78;5049318;28;20482;-77
2023/10/01 10:13:46;;;;;;;28.40;9.07;;;;;;;27.10;31.63;100758.59;5049194;28;20028;-76
2023/10/01 10:16:32;;;;;;;24.33;8.00;;;;;;;27.08;31.69;100752.47;5049331;28;20041;-75
2023/10/01 10:19:13;;;;;;;23.92;7.10;;;;;;;27.10;31.88;100753.94;5049396;28;20028;-76
2023/10/01 10:24:29;;;;;;;25.33;8.13;;;;;;;27.27;31.31;100745.88;5049282;28;20190;-77
2023/10/01 10:27:09;;;;;;;30.38;8.45;;;;;;;27.34;31.70;100741.09;5049777;28;20068;-76
2023/10/01 10:29:46;;;;;;;21.17;7.75;;;;;;;27.40;31.23;100737.44;5049322;28;20021;-77
2023/10/01 10:32:12;;;;;;;16.48;6.97;;;;;;;27.47;31.09;100744.59;5049688;28;20040;-77
2023/10/01 10:34:48;;;;;;;18.60;7.05;;;;;;;27.52;30.48;100741.16;5049270;28;20025;-76
2023/10/01 10:37:35;;;;;;;28.50;7.80;;;;;;;27.33;29.69;100743.03;5049433;28;20040;-76
2023/10/01 10:40:04;;;;;;;36.35;7.72;;;;;;;27.19;29.88;100740.66;5049065;28;20020;-76
2023/10/01 10:42:34;;;;;;;26.80;8.00;;;;;;;27.20;30.02;100734.06;5049092;28;20044;-76
2023/10/01 10:45:24;;;;;;;26.15;7.43;;;;;;;27.21;30.27;100749.56;5049196;28;20121;-78
2023/10/01 10:48:04;;;;;;;21.73;7.80;;;;;;;27.25;30.05;100736.97;5049036;28;20044;-77
2023/10/01 10:50:49;;;;;;;28.70;7.68;;;;;;;27.30;29.86;100728.84;5049055;28;20560;-77
2023/10/01 10:53:19;;;;;;;23.70;7.10;;;;;;;27.20;29.98;100726.63;5048128;28;20095;-78
2023/10/01 10:55:51;;;;;;;24.00;7.57;;;;;;;26.96;29.55;100702.72;5049182;28;20417;-76
2023/10/01 10:58:19;;;;;;;37.30;7.82;;;;;;;27.20;30.01;100731.31;5048967;28;20072;-78
2023/10/01 11:00:46;;;;;;;20.27;7.97;;;;;;;27.11;29.75;100721.63;5052023;28;20036;-76
2023/10/01 11:03:12;;;;;;;26.38;7.50;;;;;;;27.16;29.56;100713.50;5052921;28;20067;-76
2023/10/01 11:05:49;;;;;;;15.20;7.32;;;;;;;27.16;29.77;100713.50;5052950;28;20028;-78
2023/10/01 11:08:27;;;;;;;20.20;8.43;;;;;;;27.18;30.02;100727.94;5052712;28;20056;-77
2023/10/01 11:10:54;;;;;;;18.60;8.35;;;;;;;27.25;30.09;100724.00;5052775;28;20017;-78
2023/10/01 11:13:38;;;;;;;18.05;7.90;;;;;;;27.28;29.63;100731.81;5052591;28;20472;-77
2023/10/01 11:16:14;;;;;;;26.92;7.28;;;;;;;27.26;30.34;100719.34;5052691;28;20021;-77
2023/10/01 11:18:47;;;;;;;25.50;7.53;;;;;;;27.27;30.10;100704.47;5017435;28;20046;-79
2023/10/01 11:21:31;;;;;;;35.40;8.60;;;;;;;27.23;30.06;100714.28;5052583;28;20104;-77
2023/10/01 11:24:00;;;;;;;16.98;7.22;;;;;;;27.15;29.71;100717.34;5052676;28;20049;-78
2023/10/01 11:26:26;;;;;;;38.70;8.43;;;;;;;27.11;30.10;100718.88;5052421;28;20400;-77
2023/10/01 11:29:00;;;;;;;17.95;8.05;;;;;;;27.12;30.37;100718.66;5052338;28;20033;-76
2023/10/01 11:31:31;;;;;;;23.17;8.00;;;;;;;26.95;30.39;100685.28;5052052;28;20025;-77
2023/10/01 11:34:03;;;;;;;31.63;9.82;;;;;;;27.24;30.53;100704.91;5052466;28;20477;-78
2023/10/01 11:36:35;;;;;;;18.02;8.40;;;;;;;27.27;30.46;100709.97;5051968;28;20682;-75
2023/10/01 11:39:03;;;;;;;18.40;9.02;;;;;;;27.25;30.49;100685.34;5052259;28;20147;-78
2023/10/01 11:41:38;;;;;;;19.60;8.73;;;;;;;27.51;30.73;100689.72;5052273;28;20041;-78
2023/10/01 11:44:06;;;;;;;24.95;8.38;;;;;;;27.52;30.02;100694.16;5051710;28;20521;-76
2023/10/01 11:46:39;;;;;;;18.23;8.35;;;;;;;27.51;30.23;100689.72;5052187;28;20071;-76
2023/10/01 11:49:10;;;;;;;22.33;9.32;;;;;;;27.63;30.28;100704.41;5052180;28;20064;-77
2023/10/01 11:52:01;;;;;;;34.88;9.05;;;;;;;27.57;29.88;100702.59;5051980;28;20033;-77
2023/10/01 11:54:43;;;;;;;22.05;9.00;;;;;;;27.54;30.11;100701.13;5051710;28;20103;-77
2023/10/01 11:57:22;;;;;;;20.60;8.98;;;;;;;27.59;29.77;100703.19;5051659;28;20032;-77
2023/10/01 11:59:55;;;;;;;30.02;10.20;;;;;;;27.58;29.99;100699.56;5051720;28;20045;-77
2023/10/01 12:02:43;;;;;;;27.85;8.75;;;;;;;27.57;29.80;100705.34;5051863;28;20021;-76
2023/10/01 12:05:13;;;;;;;26.38;9.50;;;;;;;27.36;29.11;100703.06;5051961;28;20025;-77
2023/10/01 12:07:43;;;;;;;17.05;9.20;;;;;;;27.25;29.26;100687.25;5016482;28;20039;-77
2023/10/01 12:12:55;;;;;;;24.63;9.57;;;;;;;27.36;28.98;100692.84;5051532;28;20464;-78
2023/10/01 12:15:37;;;;;;;37.92;12.73;;;;;;;27.48;28.98;100706.75;5051491;28;20037;-77
2023/10/01 12:18:14;;;;;;;;;;;;;;;27.49;28.78;100689.13;5052138;28;20021;-77
2023/10/01 12:20:50;;;;;;;33.53;9.10;;;;;;;27.44;28.76;100692.56;5051381;28;19994;-78
2023/10/01 12:23:16;;;;;;;28.63;8.48;;;;;;;27.48;28.86;100691.03;5051601;28;20405;-78
2023/10/01 12:25:53;;;;;;;17.80;8.77;;;;;;;27.38;29.11;100685.16;5051261;28;20021;-78
2023/10/01 12:28:28;;;;;;;17.92;8.57;;;;;;;27.30;29.29;100692.94;5051261;28;20032;-77